createdAt,value
2016-06-09T00:00:40.438Z,1013.49
2016-06-09T00:01:40.442Z,1013.53
2016-06-09T00:02:40.414Z,1013.52
2016-06-09T00:03:41.058Z,1013.53
2016-06-09T00:04:40.389Z,1013.51
2016-06-09T00:05:40.376Z,1013.54
2016-06-09T00:06:40.379Z,1013.5
2016-06-09T00:07:40.351Z,1013.51
2016-06-09T00:08:40.355Z,1013.52
2016-06-09T00:09:40.341Z,1013.46
2016-06-09T00:10:40.314Z,1013.47
2016-06-09T00:11:40.301Z,1013.48
2016-06-09T00:12:40.288Z,1013.51
2016-06-09T00:13:40.275Z,1013.46
2016-06-09T00:14:40.263Z,1013.46
2016-06-09T00:15:40.250Z,1013.45
2016-06-09T00:16:40.237Z,1013.45
2016-06-09T00:17:40.210Z,1013.45
2016-06-09T00:18:40.212Z,1013.45
2016-06-09T00:19:40.185Z,1013.43
2016-06-09T00:20:40.172Z,1013.47
2016-06-09T00:21:40.175Z,1013.46
2016-06-09T00:22:40.147Z,1013.46
2016-06-09T00:23:40.135Z,1013.44
2016-06-09T00:24:40.122Z,1013.45
2016-06-09T00:25:40.109Z,1013.47
2016-06-09T00:26:40.098Z,1013.45
2016-06-09T00:27:40.101Z,1013.46
2016-06-09T00:28:40.072Z,1013.45
2016-06-09T00:29:40.059Z,1013.43
2016-06-09T00:30:40.047Z,1013.44
2016-06-09T00:31:40.034Z,1013.42
2016-06-09T00:32:40.022Z,1013.36
2016-06-09T00:33:40.009Z,1013.37
2016-06-09T00:34:39.997Z,1013.39
2016-06-09T00:35:39.985Z,1013.43
2016-06-09T00:36:39.971Z,1013.4
2016-06-09T00:37:39.959Z,1013.42
2016-06-09T00:38:39.947Z,1013.43
2016-06-09T00:39:39.933Z,1013.42
2016-06-09T00:40:39.921Z,1013.4
2016-06-09T00:41:39.909Z,1013.4
2016-06-09T00:42:39.881Z,1013.4
2016-06-09T00:43:39.867Z,1013.44
2016-06-09T00:44:39.856Z,1013.42
2016-06-09T00:45:39.858Z,1013.42
2016-06-09T00:46:39.830Z,1013.42
2016-06-09T00:47:39.818Z,1013.42
2016-06-09T00:48:39.805Z,1013.44
2016-06-09T00:49:39.793Z,1013.45
2016-06-09T00:50:39.780Z,1013.46
2016-06-09T00:51:39.768Z,1013.43
2016-06-09T00:52:39.755Z,1013.45
2016-06-09T00:53:39.743Z,1013.46
2016-06-09T00:54:39.730Z,1013.48
2016-06-09T00:55:39.717Z,1013.49
2016-06-09T00:56:39.704Z,1013.46
2016-06-09T00:57:39.693Z,1013.43
2016-06-09T00:58:39.680Z,1013.44
2016-06-09T00:59:39.667Z,1013.42
2016-06-09T01:00:39.655Z,1013.45
2016-06-09T01:01:39.626Z,1013.43
2016-06-09T01:02:39.614Z,1013.42
2016-06-09T01:03:39.601Z,1013.45
2016-06-09T01:04:39.589Z,1013.43
2016-06-09T01:05:39.577Z,1013.46
2016-06-09T01:06:39.563Z,1013.49
2016-06-09T01:07:39.551Z,1013.45
2016-06-09T01:08:39.538Z,1013.48
2016-06-09T01:09:39.526Z,1013.45
2016-06-09T01:10:39.514Z,1013.46
2016-06-09T01:11:39.501Z,1013.42
2016-06-09T01:12:39.489Z,1013.41
2016-06-09T01:13:39.476Z,1013.43
2016-06-09T01:14:39.463Z,1013.44
2016-06-09T01:15:39.435Z,1013.44
2016-06-09T01:16:39.422Z,1013.46
2016-06-09T01:17:39.425Z,1013.45
2016-06-09T01:18:39.398Z,1013.39
2016-06-09T01:19:39.385Z,1013.4
2016-06-09T01:20:39.372Z,1013.39
2016-06-09T01:21:39.360Z,1013.39
2016-06-09T01:22:39.348Z,1013.41
2016-06-09T01:23:39.334Z,1013.36
2016-06-09T01:24:39.322Z,1013.4
2016-06-09T01:25:39.310Z,1013.35
2016-06-09T01:26:39.297Z,1013.35
2016-06-09T01:27:39.284Z,1013.38
2016-06-09T01:28:39.272Z,1013.37
2016-06-09T01:29:39.260Z,1013.34
2016-06-09T01:30:39.247Z,1013.38
2016-06-09T01:31:39.218Z,1013.37
2016-06-09T01:32:39.221Z,1013.35
2016-06-09T01:33:39.194Z,1013.36
2016-06-09T01:34:39.196Z,1013.37
2016-06-09T01:35:39.168Z,1013.38
2016-06-09T01:36:39.156Z,1013.37
2016-06-09T01:37:39.143Z,1013.38
2016-06-09T01:38:39.131Z,1013.41
2016-06-09T01:39:39.118Z,1013.42
2016-06-09T01:40:39.106Z,1013.42
2016-06-09T01:41:39.093Z,1013.45
2016-06-09T01:42:39.081Z,1013.41
2016-06-09T01:43:39.068Z,1013.45
2016-06-09T01:44:39.055Z,1013.45
2016-06-09T01:45:39.044Z,1013.45
2016-06-09T01:46:39.030Z,1013.44
2016-06-09T01:47:39.018Z,1013.48
2016-06-09T01:48:39.006Z,1013.43
2016-06-09T01:49:39.103Z,1013.41
2016-06-09T01:50:38.981Z,1013.44
2016-06-09T01:51:38.952Z,1013.43
2016-06-09T01:52:38.940Z,1013.43
2016-06-09T01:53:38.927Z,1013.41
2016-06-09T01:54:38.913Z,1013.39
2016-06-09T01:55:38.902Z,1013.39
2016-06-09T01:56:38.889Z,1013.39
2016-06-09T01:57:38.877Z,1013.34
2016-06-09T01:58:38.864Z,1013.32
2016-06-09T01:59:38.852Z,1013.34
2016-06-09T02:00:38.839Z,1013.38
2016-06-09T02:01:38.826Z,1013.34
2016-06-09T02:02:38.814Z,1013.38
2016-06-09T02:03:38.802Z,1013.38
2016-06-09T02:04:38.774Z,1013.36
2016-06-09T02:05:38.761Z,1013.35
2016-06-09T02:06:38.748Z,1013.35
2016-06-09T02:07:38.736Z,1013.38
2016-06-09T02:08:38.723Z,1013.38
2016-06-09T02:09:38.710Z,1013.38
2016-06-09T02:10:38.698Z,1013.35
2016-06-09T02:11:38.685Z,1013.38
2016-06-09T02:12:38.673Z,1013.33
2016-06-09T02:13:38.661Z,1013.37
2016-06-09T02:14:38.647Z,1013.36
2016-06-09T02:15:38.620Z,1013.4
2016-06-09T02:16:38.607Z,1013.41
2016-06-09T02:17:38.595Z,1013.42
2016-06-09T02:18:38.581Z,1013.42
2016-06-09T02:19:38.570Z,1013.41
2016-06-09T02:20:38.557Z,1013.41
2016-06-09T02:21:38.543Z,1013.43
2016-06-09T02:22:38.532Z,1013.46
2016-06-09T02:23:38.519Z,1013.46
2016-06-09T02:24:38.506Z,1013.49
2016-06-09T02:25:38.478Z,1013.46
2016-06-09T02:26:38.466Z,1013.5
2016-06-09T02:27:38.453Z,1013.46
2016-06-09T02:28:38.457Z,1013.5
2016-06-09T02:29:38.429Z,1013.48
2016-06-09T02:30:38.416Z,1013.45
2016-06-09T02:31:38.403Z,1013.45
2016-06-09T02:32:38.391Z,1013.44
2016-06-09T02:33:38.409Z,1013.46
2016-06-09T02:34:38.366Z,1013.44
2016-06-09T02:35:38.353Z,1013.48
2016-06-09T02:36:38.340Z,1013.44
2016-06-09T02:37:38.328Z,1013.48
2016-06-09T02:38:38.316Z,1013.45
2016-06-09T02:39:38.302Z,1013.44
2016-06-09T02:40:38.274Z,1013.47
2016-06-09T02:41:38.294Z,1013.47
2016-06-09T02:42:38.250Z,1013.43
2016-06-09T02:43:38.236Z,1013.44
2016-06-09T02:44:38.225Z,1013.46
2016-06-09T02:45:38.211Z,1013.47
2016-06-09T02:46:38.199Z,1013.46
2016-06-09T02:47:38.187Z,1013.45
2016-06-09T02:48:38.408Z,1013.47
2016-06-09T02:49:38.162Z,1013.45
2016-06-09T02:50:38.149Z,1013.44
2016-06-09T02:51:38.136Z,1013.46
2016-06-09T02:52:38.108Z,1013.42
2016-06-09T02:53:38.095Z,1013.46
2016-06-09T02:54:38.083Z,1013.44
2016-06-09T02:55:38.071Z,1013.44
2016-06-09T02:56:38.058Z,1013.46
2016-06-09T02:57:38.045Z,1013.47
2016-06-09T02:58:38.033Z,1013.49
2016-06-09T02:59:38.021Z,1013.47
2016-06-09T03:00:38.007Z,1013.48
2016-06-09T03:01:37.995Z,1013.47
2016-06-09T03:02:37.983Z,1013.45
2016-06-09T03:03:37.970Z,1013.46
2016-06-09T03:04:38.911Z,1013.5
2016-06-09T03:05:37.930Z,1013.49
2016-06-09T03:06:37.932Z,1013.48
2016-06-09T03:07:37.904Z,1013.48
2016-06-09T03:08:37.892Z,1013.51
2016-06-09T03:09:37.880Z,1013.47
2016-06-09T03:10:37.866Z,1013.52
2016-06-09T03:11:37.855Z,1013.5
2016-06-09T03:12:37.873Z,1013.47
2016-06-09T03:13:37.829Z,1013.49
2016-06-09T03:14:37.816Z,1013.49
2016-06-09T03:15:37.804Z,1013.47
2016-06-09T03:16:37.776Z,1013.5
2016-06-09T03:17:37.763Z,1013.49
2016-06-09T03:18:37.751Z,1013.52
2016-06-09T03:19:37.738Z,1013.51
2016-06-09T03:20:37.725Z,1013.45
2016-06-09T03:21:37.713Z,1013.45
2016-06-09T03:22:37.716Z,1013.42
2016-06-09T03:23:37.687Z,1013.4
2016-06-09T03:24:37.675Z,1013.4
2016-06-09T03:25:37.663Z,1013.41
2016-06-09T03:26:37.651Z,1013.43
2016-06-09T03:27:37.621Z,1013.48
2016-06-09T03:28:37.625Z,1013.5
2016-06-09T03:29:37.597Z,1013.51
2016-06-09T03:30:37.600Z,1013.46
2016-06-09T03:31:37.572Z,1013.51
2016-06-09T03:32:37.560Z,1013.49
2016-06-09T03:33:37.547Z,1013.52
2016-06-09T03:34:37.534Z,1013.53
2016-06-09T03:35:37.522Z,1013.55
2016-06-09T03:36:37.510Z,1013.51
2016-06-09T03:37:37.496Z,1013.54
2016-06-09T03:38:37.484Z,1013.49
2016-06-09T03:39:37.472Z,1013.5
2016-06-09T03:40:37.459Z,1013.54
2016-06-09T03:41:37.446Z,1013.57
2016-06-09T03:42:37.418Z,1013.59
2016-06-09T03:43:37.406Z,1013.59
2016-06-09T03:44:37.393Z,1013.61
2016-06-09T03:45:37.380Z,1013.59
2016-06-09T03:46:37.368Z,1013.6
2016-06-09T03:47:37.355Z,1013.58
2016-06-09T03:48:37.343Z,1013.55
2016-06-09T03:49:37.331Z,1013.59
2016-06-09T03:50:37.317Z,1013.57
2016-06-09T03:51:37.289Z,1013.57
2016-06-09T03:52:37.277Z,1013.61
2016-06-09T03:53:37.280Z,1013.61
2016-06-09T03:54:37.251Z,1013.62
2016-06-09T03:55:37.240Z,1013.6
2016-06-09T03:56:37.227Z,1013.61
2016-06-09T03:57:37.214Z,1013.6
2016-06-09T03:58:37.202Z,1013.58
2016-06-09T03:59:37.189Z,1013.54
2016-06-09T04:00:37.176Z,1013.56
2016-06-09T04:01:37.164Z,1013.55
2016-06-09T04:02:37.152Z,1013.53
2016-06-09T04:03:37.140Z,1013.54
2016-06-09T04:04:37.282Z,1013.52
2016-06-09T04:05:37.099Z,1013.56
2016-06-09T04:06:37.102Z,1013.53
2016-06-09T04:07:37.073Z,1013.53
2016-06-09T04:08:37.060Z,1013.5
2016-06-09T04:09:37.048Z,1013.52
2016-06-09T04:10:37.036Z,1013.47
2016-06-09T04:11:37.023Z,1013.45
2016-06-09T04:12:37.010Z,1013.45
2016-06-09T04:13:36.998Z,1013.41
2016-06-09T04:14:36.985Z,1013.44
2016-06-09T04:15:36.958Z,1013.41
2016-06-09T04:16:36.945Z,1013.38
2016-06-09T04:17:36.947Z,1013.38
2016-06-09T04:18:36.919Z,1013.38
2016-06-09T04:19:37.345Z,1013.35
2016-06-09T04:20:36.910Z,1013.36
2016-06-09T04:21:36.881Z,1013.35
2016-06-09T04:22:36.885Z,1013.36
2016-06-09T04:23:36.857Z,1013.37
2016-06-09T04:24:36.844Z,1013.35
2016-06-09T04:25:36.832Z,1013.36
2016-06-09T04:26:36.819Z,1013.34
2016-06-09T04:27:36.806Z,1013.31
2016-06-09T04:28:36.794Z,1013.29
2016-06-09T04:29:36.782Z,1013.27
2016-06-09T04:30:36.754Z,1013.26
2016-06-09T04:31:36.757Z,1013.28
2016-06-09T04:32:36.728Z,1013.28
2016-06-09T04:33:36.732Z,1013.29
2016-06-09T04:34:37.094Z,1013.24
2016-06-09T04:35:36.690Z,1013.28
2016-06-09T04:36:36.678Z,1013.28
2016-06-09T04:37:36.665Z,1013.31
2016-06-09T04:38:36.653Z,1013.31
2016-06-09T04:39:36.640Z,1013.33
2016-06-09T04:40:36.628Z,1013.32
2016-06-09T04:41:36.615Z,1013.32
2016-06-09T04:42:36.602Z,1013.31
2016-06-09T04:43:36.591Z,1013.25
2016-06-09T04:44:36.561Z,1013.26
2016-06-09T04:45:36.564Z,1013.26
2016-06-09T04:46:36.553Z,1013.3
2016-06-09T04:47:36.525Z,1013.26
2016-06-09T04:48:36.527Z,1013.31
2016-06-09T04:49:36.499Z,1013.3
2016-06-09T04:50:36.487Z,1013.28
2016-06-09T04:51:36.490Z,1013.29
2016-06-09T04:52:36.461Z,1013.3
2016-06-09T04:53:36.449Z,1013.28
2016-06-09T04:54:36.436Z,1013.3
2016-06-09T04:55:36.424Z,1013.3
2016-06-09T04:56:36.411Z,1013.3
2016-06-09T04:57:36.399Z,1013.27
2016-06-09T04:58:36.387Z,1013.3
2016-06-09T04:59:36.357Z,1013.32
2016-06-09T05:00:36.361Z,1013.25
2016-06-09T05:01:36.333Z,1013.28
2016-06-09T05:02:36.321Z,1013.27
2016-06-09T05:03:36.324Z,1013.3
2016-06-09T05:04:36.888Z,1013.25
2016-06-09T05:05:36.283Z,1013.25
2016-06-09T05:06:36.270Z,1013.26
2016-06-09T05:07:36.257Z,1013.26
2016-06-09T05:08:36.246Z,1013.28
2016-06-09T05:09:36.232Z,1013.31
2016-06-09T05:10:36.220Z,1013.31
2016-06-09T05:11:36.208Z,1013.29
2016-06-09T05:12:36.195Z,1013.27
2016-06-09T05:13:36.166Z,1013.25
2016-06-09T05:14:36.170Z,1013.23
2016-06-09T05:15:36.157Z,1013.19
2016-06-09T05:16:36.129Z,1013.21
2016-06-09T05:17:36.117Z,1013.17
2016-06-09T05:18:36.120Z,1013.14
2016-06-09T05:19:36.607Z,1013.15
2016-06-09T05:20:36.079Z,1013.16
2016-06-09T05:21:36.066Z,1013.16
2016-06-09T05:22:36.053Z,1013.18
2016-06-09T05:23:36.041Z,1013.18
2016-06-09T05:24:36.028Z,1013.16
2016-06-09T05:25:36.017Z,1013.17
2016-06-09T05:26:36.004Z,1013.2
2016-06-09T05:27:35.991Z,1013.18
2016-06-09T05:28:35.978Z,1013.2
2016-06-09T05:29:35.950Z,1013.21
2016-06-09T05:30:35.953Z,1013.2
2016-06-09T05:31:35.925Z,1013.19
2016-06-09T05:32:35.913Z,1013.22
2016-06-09T05:33:35.900Z,1013.21
2016-06-09T05:34:35.887Z,1013.21
2016-06-09T05:35:35.891Z,1013.2
2016-06-09T05:36:35.862Z,1013.24
2016-06-09T05:37:35.865Z,1013.27
2016-06-09T05:38:35.837Z,1013.25
2016-06-09T05:39:35.825Z,1013.28
2016-06-09T05:40:35.813Z,1013.22
2016-06-09T05:41:35.847Z,1013.23
2016-06-09T05:42:35.787Z,1013.25
2016-06-09T05:43:35.789Z,1013.23
2016-06-09T05:44:35.762Z,1013.26
2016-06-09T05:45:35.748Z,1013.24
2016-06-09T05:46:35.737Z,1013.22
2016-06-09T05:47:35.724Z,1013.23
2016-06-09T05:48:35.696Z,1013.2
2016-06-09T05:49:35.699Z,1013.19
2016-06-09T05:50:35.671Z,1013.23
2016-06-09T05:51:35.658Z,1013.24
2016-06-09T05:52:35.645Z,1013.25
2016-06-09T05:53:35.633Z,1013.23
2016-06-09T05:54:35.621Z,1013.27
2016-06-09T05:55:35.609Z,1013.27
2016-06-09T05:56:35.595Z,1013.31
2016-06-09T05:57:35.583Z,1013.32
2016-06-09T05:58:35.571Z,1013.32
2016-06-09T05:59:35.574Z,1013.28
2016-06-09T06:00:35.545Z,1013.3
2016-06-09T06:01:35.534Z,1013.32
2016-06-09T06:02:35.520Z,1013.3
2016-06-09T06:03:35.509Z,1013.32
2016-06-09T06:04:35.495Z,1013.32
2016-06-09T06:05:35.467Z,1013.34
2016-06-09T06:06:35.470Z,1013.3
2016-06-09T06:07:35.441Z,1013.32
2016-06-09T06:08:35.429Z,1013.36
2016-06-09T06:09:35.417Z,1013.35
2016-06-09T06:10:35.405Z,1013.32
2016-06-09T06:11:35.392Z,1013.33
2016-06-09T06:12:35.379Z,1013.35
2016-06-09T06:13:35.367Z,1013.34
2016-06-09T06:14:35.354Z,1013.34
2016-06-09T06:15:35.341Z,1013.37
2016-06-09T06:16:35.329Z,1013.36
2016-06-09T06:17:35.316Z,1013.4
2016-06-09T06:18:35.289Z,1013.39
2016-06-09T06:19:35.589Z,1013.36
2016-06-09T06:20:35.264Z,1013.37
2016-06-09T06:21:35.267Z,1013.35
2016-06-09T06:22:35.238Z,1013.39
2016-06-09T06:23:35.226Z,1013.35
2016-06-09T06:24:35.229Z,1013.37
2016-06-09T06:25:35.201Z,1013.33
2016-06-09T06:26:35.188Z,1013.32
2016-06-09T06:27:35.175Z,1013.3
2016-06-09T06:28:35.163Z,1013.3
2016-06-09T06:29:35.151Z,1013.33
2016-06-09T06:30:35.137Z,1013.34
2016-06-09T06:31:35.125Z,1013.34
2016-06-09T06:32:35.128Z,1013.36
2016-06-09T06:33:35.116Z,1013.34
2016-06-09T06:34:35.087Z,1013.33
2016-06-09T06:35:35.075Z,1013.3
2016-06-09T06:36:35.063Z,1013.3
2016-06-09T06:37:35.066Z,1013.27
2016-06-09T06:38:35.037Z,1013.27
2016-06-09T06:39:35.025Z,1013.2
2016-06-09T06:40:35.012Z,1013.21
2016-06-09T06:41:35.000Z,1013.14
2016-06-09T06:42:34.987Z,1013.12
2016-06-09T06:43:34.975Z,1013.1
2016-06-09T06:44:34.962Z,1013.1
2016-06-09T06:45:34.949Z,1013.16
2016-06-09T06:46:34.921Z,1013.1
2016-06-09T06:47:34.925Z,1013.14
2016-06-09T06:48:34.912Z,1013.15
2016-06-09T06:49:34.900Z,1013.14
2016-06-09T06:50:34.887Z,1013.14
2016-06-09T06:51:34.873Z,1013.19
2016-06-09T06:52:34.862Z,1013.15
2016-06-09T06:53:34.849Z,1013.16
2016-06-09T06:54:34.836Z,1013.16
2016-06-09T06:55:34.824Z,1013.17
2016-06-09T06:56:34.811Z,1013.17
2016-06-09T06:57:34.799Z,1013.15
2016-06-09T06:58:34.787Z,1013.16
2016-06-09T06:59:34.774Z,1013.18
2016-06-09T07:00:34.761Z,1013.14
2016-06-09T07:01:34.732Z,1013.2
2016-06-09T07:02:34.752Z,1013.15
2016-06-09T07:03:34.708Z,1013.19
2016-06-09T07:04:34.710Z,1013.19
2016-06-09T07:05:34.699Z,1013.17
2016-06-09T07:06:34.686Z,1013.19
2016-06-09T07:07:34.658Z,1013.14
2016-06-09T07:08:34.645Z,1013.17
2016-06-09T07:09:34.632Z,1013.14
2016-06-09T07:10:34.636Z,1013.13
2016-06-09T07:11:34.623Z,1013.11
2016-06-09T07:12:34.626Z,1013.18
2016-06-09T07:13:34.598Z,1013.18
2016-06-09T07:14:34.586Z,1013.15
2016-06-09T07:15:34.557Z,1013.18
2016-06-09T07:16:34.608Z,1013.15
2016-06-09T07:17:34.531Z,1013.2
2016-06-09T07:18:34.520Z,1013.18
2016-06-09T07:19:34.507Z,1013.13
2016-06-09T07:20:34.557Z,1013.14
2016-06-09T07:21:34.482Z,1013.16
2016-06-09T07:22:34.469Z,1013.17
2016-06-09T07:23:34.457Z,1013.21
2016-06-09T07:24:34.444Z,1013.18
2016-06-09T07:25:34.432Z,1013.13
2016-06-09T07:26:34.420Z,1013.16
2016-06-09T07:27:34.407Z,1013.13
2016-06-09T07:28:35.065Z,1013.14
2016-06-09T07:29:34.382Z,1013.13
2016-06-09T07:30:34.369Z,1013.15
2016-06-09T07:31:34.357Z,1013.14
2016-06-09T07:32:34.344Z,1013.15
2016-06-09T07:33:34.330Z,1013.13
2016-06-09T07:34:34.319Z,1013.13
2016-06-09T07:35:34.322Z,1013.12
2016-06-09T07:36:34.294Z,1013.12
2016-06-09T07:37:34.281Z,1013.12
2016-06-09T07:38:34.268Z,1013.11
2016-06-09T07:39:34.256Z,1013.08
2016-06-09T07:40:34.243Z,1013.13
2016-06-09T07:41:34.230Z,1013.09
2016-06-09T07:42:34.219Z,1013.1
2016-06-09T07:43:34.205Z,1013.09
2016-06-09T07:44:34.194Z,1013.08
2016-06-09T07:45:34.181Z,1013.09
2016-06-09T07:46:34.168Z,1013.08
2016-06-09T07:47:34.156Z,1013.06
2016-06-09T07:48:34.127Z,1013.03
2016-06-09T07:49:34.115Z,1013.01
2016-06-09T07:50:34.118Z,1013.04
2016-06-09T07:51:34.106Z,1013.01
2016-06-09T07:52:34.093Z,1013.02
2016-06-09T07:53:34.064Z,1013.01
2016-06-09T07:54:34.067Z,1013.01
2016-06-09T07:55:34.040Z,1012.96
2016-06-09T07:56:34.027Z,1013.02
2016-06-09T07:57:34.015Z,1012.99
2016-06-09T07:58:34.001Z,1013
2016-06-09T07:59:34.005Z,1013
2016-06-09T08:00:33.977Z,1013
2016-06-09T08:01:33.964Z,1012.99
2016-06-09T08:02:33.952Z,1013.07
2016-06-09T08:03:33.939Z,1013.03
2016-06-09T08:04:33.926Z,1013.05
2016-06-09T08:05:33.915Z,1013.03
2016-06-09T08:06:33.917Z,1013.04
2016-06-09T08:07:33.890Z,1013.07
2016-06-09T08:08:33.877Z,1013.04
2016-06-09T08:09:33.879Z,1013.04
2016-06-09T08:10:33.852Z,1013.03
2016-06-09T08:11:33.839Z,1013.01
2016-06-09T08:12:33.841Z,1013
2016-06-09T08:13:34.861Z,1013
2016-06-09T08:14:33.800Z,1013
2016-06-09T08:15:33.789Z,1013.02
2016-06-09T08:16:33.776Z,1013.05
2016-06-09T08:17:33.779Z,1013.04
2016-06-09T08:18:33.748Z,1013.03
2016-06-09T08:19:33.751Z,1013.04
2016-06-09T08:20:33.723Z,1013.04
2016-06-09T08:21:33.710Z,1013.06
2016-06-09T08:22:33.698Z,1013.09
2016-06-09T08:23:33.700Z,1013.11
2016-06-09T08:24:33.689Z,1013.11
2016-06-09T08:25:33.678Z,1013.09
2016-06-09T08:26:33.707Z,1013.1
2016-06-09T08:27:33.738Z,1013.13
2016-06-09T08:28:33.751Z,1013.17
2016-06-09T08:29:33.798Z,1013.17
2016-06-09T08:30:33.827Z,1013.12
2016-06-09T08:31:33.829Z,1013.11
2016-06-09T08:32:33.879Z,1013.1
2016-06-09T08:33:33.835Z,1013.13
2016-06-09T08:34:33.837Z,1013.14
2016-06-09T08:35:33.840Z,1013.14
2016-06-09T08:36:33.833Z,1013.15
2016-06-09T08:37:33.826Z,1013.12
2016-06-09T08:38:33.819Z,1013.13
2016-06-09T08:39:33.811Z,1013.12
2016-06-09T08:40:33.804Z,1013.09
2016-06-09T08:41:33.793Z,1013.11
2016-06-09T08:42:33.783Z,1013.09
2016-06-09T08:43:33.773Z,1013.12
2016-06-09T08:44:33.778Z,1013.12
2016-06-09T08:45:33.750Z,1013.09
2016-06-09T08:46:33.739Z,1013.08
2016-06-09T08:47:33.727Z,1013.07
2016-06-09T08:48:33.716Z,1013.08
2016-06-09T08:49:33.704Z,1013.09
2016-06-09T08:50:34.317Z,1013.07
2016-06-09T08:51:33.680Z,1013.09
2016-06-09T08:52:33.667Z,1013.07
2016-06-09T08:53:33.655Z,1013.08
2016-06-09T08:54:33.644Z,1013.04
2016-06-09T08:55:33.631Z,1013.04
2016-06-09T08:56:33.620Z,1013.05
2016-06-09T08:57:33.606Z,1013.04
2016-06-09T08:58:35.691Z,1013.04
2016-06-09T08:59:33.582Z,1013.03
2016-06-09T09:00:33.568Z,1013.06
2016-06-09T09:01:33.555Z,1013.08
2016-06-09T09:02:33.543Z,1013.13
2016-06-09T09:03:33.530Z,1013.13
2016-06-09T09:04:33.518Z,1013.17
2016-06-09T09:05:33.522Z,1013.11
2016-06-09T09:06:33.493Z,1013.15
2016-06-09T09:07:33.481Z,1013.13
2016-06-09T09:08:33.468Z,1013.14
2016-06-09T09:09:33.455Z,1013.11
2016-06-09T09:10:33.443Z,1013.09
2016-06-09T09:11:33.431Z,1013.06
2016-06-09T09:12:33.418Z,1013.12
2016-06-09T09:13:33.406Z,1013.09
2016-06-09T09:14:33.393Z,1013.07
2016-06-09T09:15:33.381Z,1013.07
2016-06-09T09:16:33.367Z,1013.04
2016-06-09T09:17:33.355Z,1013.06
2016-06-09T09:18:33.343Z,1013.04
2016-06-09T09:19:33.330Z,1013.07
2016-06-09T09:20:33.911Z,1013.09
2016-06-09T09:21:33.305Z,1013.06
2016-06-09T09:22:33.308Z,1013.08
2016-06-09T09:23:33.280Z,1013.05
2016-06-09T09:24:33.267Z,1013.08
2016-06-09T09:25:33.270Z,1013.02
2016-06-09T09:26:33.257Z,1013.03
2016-06-09T09:27:33.229Z,1013.07
2016-06-09T09:28:33.218Z,1013
2016-06-09T09:29:33.204Z,1013.07
2016-06-09T09:30:33.191Z,1013.03
2016-06-09T09:31:33.180Z,1013.04
2016-06-09T09:32:33.166Z,1013.05
2016-06-09T09:33:33.153Z,1013.09
2016-06-09T09:34:33.142Z,1013.06
2016-06-09T09:35:33.129Z,1013.04
2016-06-09T09:36:33.117Z,1013.04
2016-06-09T09:37:33.120Z,1013.01
2016-06-09T09:38:33.108Z,1013
2016-06-09T09:39:33.079Z,1013.03
2016-06-09T09:40:33.082Z,1013
2016-06-09T09:41:33.053Z,1013.05
2016-06-09T09:42:33.042Z,1013.05
2016-06-09T09:43:33.028Z,1013.05
2016-06-09T09:44:33.032Z,1013.01
2016-06-09T09:45:33.020Z,1013.01
2016-06-09T09:46:33.007Z,1013.02
2016-06-09T09:47:32.979Z,1013.01
2016-06-09T09:48:32.965Z,1013
2016-06-09T09:49:32.953Z,1013.05
2016-06-09T09:50:33.160Z,1013.02
2016-06-09T09:51:32.929Z,1013.02
2016-06-09T09:52:32.932Z,1013.04
2016-06-09T09:53:32.903Z,1013.05
2016-06-09T09:54:32.906Z,1013.08
2016-06-09T09:55:32.894Z,1013.11
2016-06-09T09:56:32.866Z,1013.12
2016-06-09T09:57:32.868Z,1013.1
2016-06-09T09:58:32.856Z,1013.12
2016-06-09T09:59:32.843Z,1013.08
2016-06-09T10:00:32.816Z,1013.11
2016-06-09T10:01:32.803Z,1013.06
2016-06-09T10:02:32.790Z,1013.07
2016-06-09T10:03:32.793Z,1013.05
2016-06-09T10:04:32.781Z,1013.05
2016-06-09T10:05:32.752Z,1013.04
2016-06-09T10:06:32.787Z,1013.07
2016-06-09T10:07:32.743Z,1013.09
2016-06-09T10:08:32.715Z,1013.07
2016-06-09T10:09:32.703Z,1013.08
2016-06-09T10:10:32.705Z,1013.11
2016-06-09T10:11:32.693Z,1013.07
2016-06-09T10:12:32.681Z,1013.11
2016-06-09T10:13:32.668Z,1013.09
2016-06-09T10:14:32.655Z,1013.09
2016-06-09T10:15:32.643Z,1013.09
2016-06-09T10:16:32.630Z,1013.09
2016-06-09T10:17:32.618Z,1013.08
2016-06-09T10:18:32.605Z,1013.09
2016-06-09T10:19:32.592Z,1013.08
2016-06-09T10:20:32.986Z,1013.1
2016-06-09T10:21:32.568Z,1013.08
2016-06-09T10:22:32.554Z,1013.07
2016-06-09T10:23:32.543Z,1013.04
2016-06-09T10:24:32.530Z,1013.03
2016-06-09T10:25:32.517Z,1013.03
2016-06-09T10:26:32.504Z,1013.01
2016-06-09T10:27:32.492Z,1013.05
2016-06-09T10:28:32.480Z,1013.07
2016-06-09T10:29:32.467Z,1013.1
2016-06-09T10:30:32.454Z,1013.02
2016-06-09T10:31:32.443Z,1013.08
2016-06-09T10:32:32.460Z,1012.98
2016-06-09T10:33:32.417Z,1013.03
2016-06-09T10:34:32.420Z,1013.02
2016-06-09T10:35:32.391Z,1012.99
2016-06-09T10:36:32.817Z,1013
2016-06-09T10:37:32.382Z,1013.02
2016-06-09T10:38:32.369Z,1013.02
2016-06-09T10:39:32.356Z,1013.01
2016-06-09T10:40:32.345Z,1012.99
2016-06-09T10:41:32.332Z,1013.01
2016-06-09T10:42:32.320Z,1012.98
2016-06-09T10:43:32.307Z,1012.97
2016-06-09T10:44:32.294Z,1012.98
2016-06-09T10:45:32.282Z,1012.97
2016-06-09T10:46:32.270Z,1012.92
2016-06-09T10:47:32.256Z,1012.96
2016-06-09T10:48:32.244Z,1012.98
2016-06-09T10:49:32.232Z,1012.96
2016-06-09T10:50:32.797Z,1012.99
2016-06-09T10:51:32.207Z,1012.96
2016-06-09T10:52:32.210Z,1013.01
2016-06-09T10:53:32.182Z,1012.97
2016-06-09T10:54:32.169Z,1012.97
2016-06-09T10:55:32.155Z,1012.93
2016-06-09T10:56:32.159Z,1012.94
2016-06-09T10:57:32.147Z,1012.96
2016-06-09T10:58:32.134Z,1012.92
2016-06-09T10:59:32.122Z,1012.95
2016-06-09T11:00:32.110Z,1012.92
2016-06-09T11:01:32.081Z,1012.96
2016-06-09T11:02:32.085Z,1012.91
2016-06-09T11:03:32.071Z,1012.96
2016-06-09T11:04:32.059Z,1012.98
2016-06-09T11:05:32.047Z,1013.01
2016-06-09T11:06:32.033Z,1012.99
2016-06-09T11:07:32.022Z,1012.94
2016-06-09T11:08:32.009Z,1012.97
2016-06-09T11:09:31.996Z,1012.96
2016-06-09T11:10:31.984Z,1012.95
2016-06-09T11:11:31.971Z,1013
2016-06-09T11:12:31.958Z,1013.03
2016-06-09T11:13:31.946Z,1013
2016-06-09T11:14:31.933Z,1013.02
2016-06-09T11:15:31.921Z,1013
2016-06-09T11:16:31.908Z,1013.05
2016-06-09T11:17:31.911Z,1013.01
2016-06-09T11:18:31.883Z,1013.02
2016-06-09T11:19:31.871Z,1013.01
2016-06-09T11:20:31.873Z,1013.02
2016-06-09T11:21:31.861Z,1013.05
2016-06-09T11:22:31.849Z,1013.04
2016-06-09T11:23:31.836Z,1013.04
2016-06-09T11:24:31.824Z,1013.02
2016-06-09T11:25:31.811Z,1013.02
2016-06-09T11:26:31.798Z,1012.98
2016-06-09T11:27:31.786Z,1012.98
2016-06-09T11:28:31.774Z,1012.95
2016-06-09T11:29:31.760Z,1012.93
2016-06-09T11:30:31.764Z,1012.95
2016-06-09T11:31:31.735Z,1012.97
2016-06-09T11:32:31.723Z,1012.98
2016-06-09T11:33:31.711Z,1012.98
2016-06-09T11:34:31.698Z,1013.01
2016-06-09T11:35:31.700Z,1012.99
2016-06-09T11:36:31.673Z,1013
2016-06-09T11:37:31.660Z,1013
2016-06-09T11:38:31.648Z,1012.99
2016-06-09T11:39:31.651Z,1013
2016-06-09T11:40:31.623Z,1012.98
2016-06-09T11:41:31.627Z,1013.01
2016-06-09T11:42:31.613Z,1013.01
2016-06-09T11:43:31.601Z,1012.99
2016-06-09T11:44:31.589Z,1012.99
2016-06-09T11:45:31.576Z,1012.98
2016-06-09T11:46:31.563Z,1012.99
2016-06-09T11:47:31.551Z,1012.96
2016-06-09T11:48:31.538Z,1012.99
2016-06-09T11:49:31.525Z,1012.96
2016-06-09T11:50:31.544Z,1012.99
2016-06-09T11:51:31.516Z,1012.99
2016-06-09T11:52:31.503Z,1012.99
2016-06-09T11:53:31.491Z,1012.97
2016-06-09T11:54:31.463Z,1013
2016-06-09T11:55:31.465Z,1012.94
2016-06-09T11:56:31.454Z,1012.95
2016-06-09T11:57:31.440Z,1012.93
2016-06-09T11:58:31.444Z,1012.87
2016-06-09T11:59:31.416Z,1012.89
2016-06-09T12:00:31.402Z,1012.93
2016-06-09T12:01:31.391Z,1012.95
2016-06-09T12:02:31.378Z,1012.94
2016-06-09T12:03:31.365Z,1012.97
2016-06-09T12:04:31.353Z,1012.95
2016-06-09T12:05:31.387Z,1012.93
2016-06-09T12:06:31.328Z,1012.94
2016-06-09T12:07:31.331Z,1012.92
2016-06-09T12:08:31.365Z,1012.94
2016-06-09T12:09:31.305Z,1012.94